createdAt,value
2023-05-24T00:00:10.676Z,8.10
2023-05-24T00:05:02.317Z,11.20
2023-05-24T00:09:55.280Z,15.60
2023-05-24T00:14:46.752Z,9.10
2023-05-24T00:19:38.736Z,11.20
2023-05-24T00:24:33.121Z,7.20
2023-05-24T00:29:24.641Z,7.30
2023-05-24T00:34:18.137Z,8.90
2023-05-24T00:39:12.182Z,7.60
2023-05-24T00:44:03.689Z,8.90
2023-05-24T00:48:55.925Z,7.10
2023-05-24T00:53:48.978Z,8.10
2023-05-24T00:58:44.022Z,9.20
2023-05-24T01:03:35.875Z,15.20
2023-05-24T01:08:54.304Z,7.80
2023-05-24T01:14:07.157Z,6.50
2023-05-24T01:19:05.667Z,6.50
2023-05-24T01:24:10.599Z,7.60
2023-05-24T01:29:03.339Z,7.30
2023-05-24T01:33:55.216Z,6.30
2023-05-24T01:38:47.059Z,7.50
2023-05-24T01:43:43.453Z,8.30
2023-05-24T01:48:59.997Z,10.50
2023-05-24T01:53:53.313Z,6.30
2023-05-24T01:58:47.503Z,6.70
2023-05-24T02:03:40.065Z,7.90
2023-05-24T02:08:31.605Z,7.80
2023-05-24T02:13:23.121Z,9.10
2023-05-24T02:18:14.669Z,6.20
2023-05-24T02:23:06.920Z,6.40
2023-05-24T02:28:01.559Z,6.60
2023-05-24T02:32:53.296Z,8.30
2023-05-24T02:37:45.076Z,7.60
2023-05-24T02:42:36.784Z,7.70
2023-05-24T02:47:28.368Z,6.60
2023-05-24T02:52:22.340Z,7.20
2023-05-24T02:57:32.276Z,7.10
2023-05-24T03:02:23.841Z,8.60
2023-05-24T03:07:15.351Z,6.90
2023-05-24T03:12:07.314Z,7.20
2023-05-24T03:16:58.911Z,6.80
2023-05-24T03:21:50.817Z,7.40
2023-05-24T03:26:42.394Z,8.20
2023-05-24T03:31:34.188Z,7.20
2023-05-24T03:36:27.873Z,6.80
2023-05-24T03:41:19.957Z,6.30
2023-05-24T03:46:11.654Z,10.50
2023-05-24T03:51:03.705Z,7.90
2023-05-24T03:55:55.239Z,9.00
2023-05-24T04:00:47.334Z,6.60
2023-05-24T04:05:38.869Z,5.60
2023-05-24T04:10:30.312Z,8.20
2023-05-24T04:15:22.526Z,6.80
2023-05-24T04:20:14.676Z,7.00
2023-05-24T04:25:09.221Z,7.20
2023-05-24T04:30:00.792Z,8.00
2023-05-24T04:34:52.312Z,7.30
2023-05-24T04:39:44.664Z,8.40
2023-05-24T04:44:36.280Z,6.00
2023-05-24T04:49:29.330Z,5.90
2023-05-24T04:54:31.114Z,7.80
2023-05-24T04:59:27.295Z,6.60
2023-05-24T05:04:22.459Z,6.90
2023-05-24T05:09:22.073Z,8.20
2023-05-24T05:14:14.006Z,9.80
2023-05-24T05:19:05.517Z,11.80
2023-05-24T05:23:59.776Z,5.70
2023-05-24T05:28:52.343Z,8.50
2023-05-24T05:33:43.984Z,7.80
2023-05-24T05:38:35.427Z,7.80
2023-05-24T05:43:28.468Z,7.50
2023-05-24T05:48:21.568Z,5.70
2023-05-24T05:53:13.275Z,7.20
2023-05-24T05:58:04.974Z,8.90
2023-05-24T06:02:56.534Z,12.20
2023-05-24T06:07:48.084Z,9.50
2023-05-24T06:12:43.106Z,12.30
2023-05-24T06:17:35.547Z,6.60
2023-05-24T06:22:29.128Z,6.20
2023-05-24T06:27:20.831Z,5.50
2023-05-24T06:32:12.384Z,5.80
2023-05-24T06:37:05.671Z,6.10
2023-05-24T06:41:57.506Z,5.70
2023-05-24T06:46:49.284Z,6.70
2023-05-24T06:51:40.931Z,4.80
2023-05-24T06:56:32.775Z,7.80
2023-05-24T07:01:24.326Z,7.10
2023-05-24T07:06:16.682Z,6.10
2023-05-24T07:11:09.346Z,6.30
2023-05-24T07:16:06.180Z,7.70
2023-05-24T07:20:57.750Z,9.40
2023-05-24T07:25:49.256Z,5.90
2023-05-24T07:30:44.023Z,6.10
2023-05-24T07:35:45.047Z,6.10
2023-05-24T07:40:40.982Z,7.40
2023-05-24T07:45:36.496Z,6.80
2023-05-24T07:50:32.883Z,5.00
2023-05-24T07:55:31.592Z,4.60
2023-05-24T08:00:24.599Z,5.00
2023-05-24T08:05:20.656Z,4.80
2023-05-24T08:10:12.962Z,10.90
2023-05-24T08:15:08.363Z,4.90
2023-05-24T08:20:25.980Z,6.00
2023-05-24T08:25:15.903Z,5.10
2023-05-24T08:30:08.436Z,5.50
2023-05-24T08:35:14.816Z,6.60
2023-05-24T08:40:13.872Z,4.60
2023-05-24T08:45:12.872Z,4.60
2023-05-24T08:50:14.843Z,5.90
2023-05-24T08:55:10.694Z,4.30
2023-05-24T09:00:02.277Z,5.20
2023-05-24T09:04:55.166Z,11.20
2023-05-24T09:10:22.821Z,8.50
2023-05-24T09:16:08.466Z,7.90
2023-05-24T09:22:42.427Z,12.60
2023-05-24T09:28:50.383Z,5.60
2023-05-24T09:33:48.388Z,4.30
2023-05-24T09:38:53.506Z,10.20
2023-05-24T09:43:51.463Z,4.90
2023-05-24T09:49:49.288Z,7.30
2023-05-24T10:01:00.672Z,6.20
2023-05-24T10:05:53.739Z,4.80
2023-05-24T10:10:45.895Z,4.20
2023-05-24T10:15:38.257Z,5.50
2023-05-24T10:20:30.331Z,5.10
2023-05-24T10:25:27.922Z,4.70
2023-05-24T10:36:53.441Z,9.10
2023-05-24T10:42:25.572Z,9.70
2023-05-24T10:48:06.686Z,7.10
2023-05-24T10:54:21.363Z,6.80
2023-05-24T11:58:14.805Z,6.00
2023-05-24T12:04:04.677Z,7.90
2023-05-24T12:55:02.040Z,13.20
2023-05-24T13:07:38.454Z,7.90
2023-05-24T13:12:30.875Z,11.90
2023-05-24T13:17:26.614Z,8.20
2023-05-24T13:22:20.693Z,7.30
2023-05-24T13:27:12.940Z,9.00
2023-05-24T13:32:04.661Z,7.60
2023-05-24T13:36:56.871Z,8.40
2023-05-24T13:41:49.992Z,7.80
2023-05-24T13:46:43.111Z,9.00
2023-05-24T13:51:37.969Z,11.30
2023-05-24T14:01:28.137Z,6.80
2023-05-24T14:06:25.100Z,6.40
2023-05-24T14:11:18.903Z,8.10
2023-05-24T14:16:16.748Z,6.80
2023-05-24T14:21:11.164Z,8.00
2023-05-24T14:26:04.780Z,5.50
2023-05-24T14:30:58.660Z,6.20
2023-05-24T14:35:51.284Z,6.80
2023-05-24T14:40:46.681Z,7.50
2023-05-24T14:45:43.006Z,6.40
2023-05-24T14:50:47.207Z,10.10
2023-05-24T14:55:44.691Z,6.60
2023-05-24T15:00:40.731Z,6.30
2023-05-24T15:05:33.237Z,6.50
2023-05-24T15:10:28.517Z,7.80
2023-05-24T15:15:22.307Z,7.90
2023-05-24T15:20:21.423Z,6.80
2023-05-24T15:25:17.515Z,8.40
2023-05-24T15:30:11.464Z,8.10
2023-05-24T15:35:09.351Z,8.60
2023-05-24T15:40:06.216Z,9.50
2023-05-24T15:49:54.262Z,8.90
2023-05-24T15:54:56.757Z,9.80
2023-05-24T15:59:50.670Z,9.80
2023-05-24T16:04:43.243Z,9.40
2023-05-24T16:09:37.052Z,10.00
2023-05-24T16:14:42.079Z,11.10
2023-05-24T16:19:57.898Z,10.60
2023-05-24T16:24:51.571Z,10.80
2023-05-24T16:30:07.931Z,15.80
2023-05-24T16:35:01.535Z,11.80
2023-05-24T16:39:53.112Z,13.90
2023-05-24T16:44:47.273Z,11.20
2023-05-24T16:49:38.762Z,11.70
2023-05-24T16:54:32.628Z,12.50
2023-05-24T16:59:32.581Z,13.20
2023-05-24T17:04:27.036Z,12.30
2023-05-24T17:09:19.608Z,12.50
2023-05-24T17:14:11.346Z,12.30
2023-05-24T17:19:03.112Z,15.30
2023-05-24T17:23:54.990Z,13.10
2023-05-24T17:28:59.576Z,12.90
2023-05-24T17:33:51.729Z,12.70
2023-05-24T17:38:46.387Z,15.30
2023-05-24T17:43:41.346Z,13.90
2023-05-24T17:48:34.522Z,13.50
2023-05-24T17:53:31.566Z,14.30
2023-05-24T17:58:24.059Z,12.80
2023-05-24T18:03:19.394Z,12.50
2023-05-24T18:08:10.901Z,14.20
2023-05-24T18:13:19.912Z,13.80
2023-05-24T18:18:12.863Z,13.50
2023-05-24T18:23:26.552Z,12.90
2023-05-24T18:28:20.748Z,11.20
2023-05-24T18:33:15.725Z,12.70
2023-05-24T18:38:10.034Z,12.90
2023-05-24T18:43:02.265Z,12.90
2023-05-24T18:47:53.908Z,12.80
2023-05-24T18:57:45.359Z,12.70
2023-05-24T19:02:40.826Z,14.40
2023-05-24T19:07:35.449Z,12.60
2023-05-24T19:12:26.919Z,12.90
2023-05-24T19:17:18.465Z,14.70
2023-05-24T19:22:12.410Z,15.20
2023-05-24T19:27:07.866Z,13.90
2023-05-24T19:31:59.415Z,14.10
2023-05-24T19:36:51.010Z,13.90
2023-05-24T19:41:44.976Z,13.90
2023-05-24T19:46:36.853Z,13.80
2023-05-24T19:51:38.949Z,15.20
2023-05-24T19:56:31.604Z,14.40
2023-05-24T20:01:27.111Z,14.20
2023-05-24T20:06:18.623Z,14.00
2023-05-24T20:11:11.470Z,13.60
2023-05-24T20:16:03.802Z,12.90
2023-05-24T20:21:00.949Z,14.20
2023-05-24T20:30:45.174Z,14.90
2023-05-24T20:35:36.678Z,13.50
2023-05-24T20:40:30.346Z,14.00
2023-05-24T20:45:27.173Z,15.20
2023-05-24T20:50:18.792Z,16.50
2023-05-24T20:55:10.975Z,15.40
2023-05-24T21:00:02.714Z,15.30
2023-05-24T21:04:55.250Z,15.40
2023-05-24T21:09:54.896Z,16.10
2023-05-24T21:14:46.368Z,15.40
2023-05-24T21:19:38.067Z,15.50
2023-05-24T21:25:02.132Z,15.70
2023-05-24T21:29:53.703Z,15.00
2023-05-24T21:34:46.547Z,18.50
2023-05-24T21:39:38.041Z,15.50
2023-05-24T21:44:29.631Z,16.00
2023-05-24T21:49:21.237Z,16.30
2023-05-24T21:54:12.782Z,16.70
2023-05-24T21:59:05.682Z,16.80
2023-05-24T22:03:57.394Z,16.20
2023-05-24T22:08:49.028Z,18.80
2023-05-24T22:14:07.142Z,17.00
2023-05-24T22:19:01.740Z,16.80
2023-05-24T22:23:53.245Z,17.30
2023-05-24T22:28:55.973Z,15.50
2023-05-24T22:33:50.786Z,17.40
2023-05-24T22:38:44.754Z,16.80
2023-05-24T22:43:39.237Z,18.10
2023-05-24T22:48:33.183Z,17.20
2023-05-24T22:53:25.467Z,18.10
2023-05-24T22:58:20.916Z,17.80
2023-05-24T23:03:12.502Z,18.90
2023-05-24T23:08:12.602Z,19.50
2023-05-24T23:13:04.140Z,19.40
2023-05-24T23:18:00.236Z,16.10
2023-05-24T23:22:52.414Z,19.50
2023-05-24T23:27:48.211Z,20.70
2023-05-24T23:32:44.014Z,19.30
2023-05-24T23:37:37.761Z,20.90
2023-05-24T23:42:35.760Z,21.30
2023-05-24T23:47:27.353Z,21.80
2023-05-24T23:52:19.829Z,25.40
2023-05-24T23:57:11.432Z,22.30
